sensor_id;sensor_type;location;lat;lon;timestamp;P1;durP1;ratioP1;P2;durP2;ratioP2
76978;SDS011;65911;47.502;19.148;2023-04-29T00:00:16;5.10;;;4.05;;
76978;SDS011;65911;47.502;19.148;2023-04-29T00:03:21;6.82;;;3.45;;
76978;SDS011;65911;47.502;19.148;2023-04-29T00:06:24;6.32;;;3.50;;
76978;SDS011;65911;47.502;19.148;2023-04-29T00:09:26;6.63;;;3.60;;
76978;SDS011;65911;47.502;19.148;2023-04-29T00:12:28;6.00;;;3.70;;
76978;SDS011;65911;47.502;19.148;2023-04-29T00:15:32;6.70;;;3.55;;
76978;SDS011;65911;47.502;19.148;2023-04-29T00:18:35;6.38;;;3.53;;
76978;SDS011;65911;47.502;19.148;2023-04-29T00:21:38;5.53;;;3.60;;
76978;SDS011;65911;47.502;19.148;2023-04-29T00:24:41;5.93;;;3.80;;
76978;SDS011;65911;47.502;19.148;2023-04-29T00:27:43;5.25;;;3.67;;
76978;SDS011;65911;47.502;19.148;2023-04-29T00:30:46;6.38;;;3.65;;
76978;SDS011;65911;47.502;19.148;2023-04-29T00:33:48;6.72;;;3.50;;
76978;SDS011;65911;47.502;19.148;2023-04-29T00:36:50;6.35;;;3.55;;
76978;SDS011;65911;47.502;19.148;2023-04-29T00:39:52;6.63;;;3.78;;
76978;SDS011;65911;47.502;19.148;2023-04-29T00:42:55;5.27;;;3.13;;
76978;SDS011;65911;47.502;19.148;2023-04-29T00:45:58;6.07;;;3.58;;
76978;SDS011;65911;47.502;19.148;2023-04-29T00:49:00;4.30;;;3.08;;
76978;SDS011;65911;47.502;19.148;2023-04-29T00:52:03;5.33;;;3.20;;
76978;SDS011;65911;47.502;19.148;2023-04-29T00:55:06;3.30;;;2.72;;
76978;SDS011;65911;47.502;19.148;2023-04-29T00:58:09;4.50;;;3.20;;
76978;SDS011;65911;47.502;19.148;2023-04-29T01:01:12;7.18;;;3.28;;
76978;SDS011;65911;47.502;19.148;2023-04-29T01:04:15;5.57;;;3.63;;
76978;SDS011;65911;47.502;19.148;2023-04-29T01:11:08;5.13;;;3.20;;
76978;SDS011;65911;47.502;19.148;2023-04-29T01:14:12;5.80;;;3.00;;
76978;SDS011;65911;47.502;19.148;2023-04-29T01:17:16;6.07;;;2.95;;
76978;SDS011;65911;47.502;19.148;2023-04-29T01:20:19;5.00;;;2.67;;
76978;SDS011;65911;47.502;19.148;2023-04-29T01:23:28;7.33;;;3.50;;
76978;SDS011;65911;47.502;19.148;2023-04-29T01:26:31;6.90;;;3.10;;
76978;SDS011;65911;47.502;19.148;2023-04-29T01:33:13;5.72;;;2.95;;
76978;SDS011;65911;47.502;19.148;2023-04-29T01:36:36;8.15;;;3.40;;
76978;SDS011;65911;47.502;19.148;2023-04-29T01:39:58;4.10;;;3.15;;
76978;SDS011;65911;47.502;19.148;2023-04-29T01:43:11;5.00;;;2.88;;
76978;SDS011;65911;47.502;19.148;2023-04-29T01:46:19;6.37;;;3.37;;
76978;SDS011;65911;47.502;19.148;2023-04-29T01:49:26;5.72;;;2.85;;
76978;SDS011;65911;47.502;19.148;2023-04-29T01:52:29;6.03;;;3.10;;
76978;SDS011;65911;47.502;19.148;2023-04-29T01:55:32;7.17;;;3.23;;
76978;SDS011;65911;47.502;19.148;2023-04-29T01:58:48;4.93;;;3.00;;
76978;SDS011;65911;47.502;19.148;2023-04-29T02:02:05;4.85;;;2.83;;
76978;SDS011;65911;47.502;19.148;2023-04-29T02:05:12;4.90;;;3.00;;
76978;SDS011;65911;47.502;19.148;2023-04-29T02:08:19;5.80;;;3.10;;
76978;SDS011;65911;47.502;19.148;2023-04-29T02:11:21;4.57;;;3.10;;
76978;SDS011;65911;47.502;19.148;2023-04-29T02:14:24;4.45;;;3.45;;
76978;SDS011;65911;47.502;19.148;2023-04-29T02:17:26;4.67;;;2.93;;
76978;SDS011;65911;47.502;19.148;2023-04-29T02:20:29;4.63;;;3.33;;
76978;SDS011;65911;47.502;19.148;2023-04-29T02:23:31;5.22;;;2.70;;
76978;SDS011;65911;47.502;19.148;2023-04-29T02:26:34;4.37;;;2.93;;
76978;SDS011;65911;47.502;19.148;2023-04-29T02:29:39;5.50;;;2.80;;
76978;SDS011;65911;47.502;19.148;2023-04-29T02:32:41;4.88;;;2.80;;
76978;SDS011;65911;47.502;19.148;2023-04-29T02:35:43;4.57;;;2.88;;
76978;SDS011;65911;47.502;19.148;2023-04-29T02:38:46;5.15;;;2.90;;
76978;SDS011;65911;47.502;19.148;2023-04-29T02:41:53;6.50;;;3.20;;
76978;SDS011;65911;47.502;19.148;2023-04-29T02:44:56;5.35;;;3.03;;
76978;SDS011;65911;47.502;19.148;2023-04-29T02:47:58;5.90;;;2.70;;
76978;SDS011;65911;47.502;19.148;2023-04-29T02:51:01;4.97;;;3.47;;
76978;SDS011;65911;47.502;19.148;2023-04-29T02:54:03;5.55;;;2.60;;
76978;SDS011;65911;47.502;19.148;2023-04-29T02:57:06;6.70;;;3.23;;
76978;SDS011;65911;47.502;19.148;2023-04-29T03:00:09;4.30;;;2.70;;
76978;SDS011;65911;47.502;19.148;2023-04-29T03:03:12;4.75;;;3.03;;
76978;SDS011;65911;47.502;19.148;2023-04-29T03:06:14;4.25;;;2.53;;
76978;SDS011;65911;47.502;19.148;2023-04-29T03:09:17;6.72;;;3.15;;
76978;SDS011;65911;47.502;19.148;2023-04-29T03:12:20;6.65;;;3.15;;
76978;SDS011;65911;47.502;19.148;2023-04-29T03:15:23;5.63;;;3.08;;
76978;SDS011;65911;47.502;19.148;2023-04-29T03:18:26;4.50;;;2.80;;
76978;SDS011;65911;47.502;19.148;2023-04-29T03:21:28;4.30;;;3.17;;
76978;SDS011;65911;47.502;19.148;2023-04-29T03:24:31;6.75;;;3.15;;
76978;SDS011;65911;47.502;19.148;2023-04-29T03:27:33;4.60;;;2.90;;
76978;SDS011;65911;47.502;19.148;2023-04-29T03:30:36;4.93;;;3.10;;
76978;SDS011;65911;47.502;19.148;2023-04-29T03:33:38;5.70;;;3.20;;
76978;SDS011;65911;47.502;19.148;2023-04-29T03:36:41;4.63;;;3.17;;
76978;SDS011;65911;47.502;19.148;2023-04-29T03:39:43;4.60;;;3.30;;
76978;SDS011;65911;47.502;19.148;2023-04-29T03:42:45;3.60;;;3.08;;
76978;SDS011;65911;47.502;19.148;2023-04-29T03:45:48;5.70;;;3.08;;
76978;SDS011;65911;47.502;19.148;2023-04-29T03:48:53;4.90;;;3.23;;
76978;SDS011;65911;47.502;19.148;2023-04-29T03:51:59;7.38;;;2.95;;
76978;SDS011;65911;47.502;19.148;2023-04-29T03:55:02;7.50;;;3.65;;
76978;SDS011;65911;47.502;19.148;2023-04-29T03:58:04;6.77;;;3.27;;
76978;SDS011;65911;47.502;19.148;2023-04-29T04:01:07;6.82;;;2.92;;
76978;SDS011;65911;47.502;19.148;2023-04-29T04:04:16;4.75;;;3.13;;
76978;SDS011;65911;47.502;19.148;2023-04-29T04:07:21;4.97;;;3.00;;
76978;SDS011;65911;47.502;19.148;2023-04-29T04:10:46;7.25;;;3.30;;
76978;SDS011;65911;47.502;19.148;2023-04-29T04:14:06;4.15;;;3.00;;
76978;SDS011;65911;47.502;19.148;2023-04-29T04:17:09;4.88;;;3.05;;
76978;SDS011;65911;47.502;19.148;2023-04-29T04:20:12;3.03;;;2.63;;
76978;SDS011;65911;47.502;19.148;2023-04-29T04:23:15;4.57;;;3.00;;
76978;SDS011;65911;47.502;19.148;2023-04-29T04:26:18;6.28;;;3.10;;
76978;SDS011;65911;47.502;19.148;2023-04-29T04:29:27;5.97;;;3.57;;
76978;SDS011;65911;47.502;19.148;2023-04-29T04:32:33;6.30;;;3.67;;
76978;SDS011;65911;47.502;19.148;2023-04-29T04:35:35;4.78;;;2.97;;
76978;SDS011;65911;47.502;19.148;2023-04-29T04:38:38;5.30;;;3.72;;
76978;SDS011;65911;47.502;19.148;2023-04-29T04:41:44;5.50;;;3.42;;
76978;SDS011;65911;47.502;19.148;2023-04-29T04:44:47;5.30;;;3.42;;
76978;SDS011;65911;47.502;19.148;2023-04-29T04:48:00;6.82;;;3.38;;
76978;SDS011;65911;47.502;19.148;2023-04-29T04:51:09;6.00;;;3.40;;
76978;SDS011;65911;47.502;19.148;2023-04-29T04:54:12;5.72;;;3.45;;
76978;SDS011;65911;47.502;19.148;2023-04-29T04:57:15;6.25;;;3.80;;
76978;SDS011;65911;47.502;19.148;2023-04-29T05:00:18;4.63;;;3.33;;
76978;SDS011;65911;47.502;19.148;2023-04-29T05:03:21;6.35;;;3.38;;
76978;SDS011;65911;47.502;19.148;2023-04-29T05:06:24;5.55;;;3.75;;
76978;SDS011;65911;47.502;19.148;2023-04-29T05:09:26;5.88;;;3.70;;
76978;SDS011;65911;47.502;19.148;2023-04-29T05:12:29;5.97;;;3.00;;
76978;SDS011;65911;47.502;19.148;2023-04-29T05:15:33;5.10;;;3.28;;
76978;SDS011;65911;47.502;19.148;2023-04-29T05:18:37;5.00;;;3.78;;
76978;SDS011;65911;47.502;19.148;2023-04-29T05:21:39;7.10;;;3.30;;
76978;SDS011;65911;47.502;19.148;2023-04-29T05:24:44;6.90;;;3.60;;
76978;SDS011;65911;47.502;19.148;2023-04-29T05:27:46;6.22;;;3.67;;
76978;SDS011;65911;47.502;19.148;2023-04-29T05:30:51;7.70;;;3.60;;
76978;SDS011;65911;47.502;19.148;2023-04-29T05:33:54;5.13;;;3.70;;
76978;SDS011;65911;47.502;19.148;2023-04-29T05:36:56;5.10;;;3.72;;
76978;SDS011;65911;47.502;19.148;2023-04-29T05:39:59;6.28;;;3.63;;
76978;SDS011;65911;47.502;19.148;2023-04-29T05:43:01;4.80;;;3.53;;
76978;SDS011;65911;47.502;19.148;2023-04-29T05:46:04;6.07;;;3.67;;
76978;SDS011;65911;47.502;19.148;2023-04-29T05:49:07;6.57;;;3.63;;
76978;SDS011;65911;47.502;19.148;2023-04-29T05:52:09;6.00;;;3.50;;
76978;SDS011;65911;47.502;19.148;2023-04-29T05:55:18;4.63;;;3.30;;
76978;SDS011;65911;47.502;19.148;2023-04-29T05:58:21;5.03;;;3.17;;
76978;SDS011;65911;47.502;19.148;2023-04-29T06:01:24;6.17;;;3.40;;
76978;SDS011;65911;47.502;19.148;2023-04-29T06:04:26;5.25;;;3.60;;
76978;SDS011;65911;47.502;19.148;2023-04-29T06:07:48;6.05;;;3.00;;
76978;SDS011;65911;47.502;19.148;2023-04-29T06:11:16;5.03;;;3.60;;
76978;SDS011;65911;47.502;19.148;2023-04-29T06:14:19;5.97;;;4.22;;
76978;SDS011;65911;47.502;19.148;2023-04-29T06:17:22;6.15;;;3.65;;
76978;SDS011;65911;47.502;19.148;2023-04-29T06:20:25;6.93;;;3.58;;
76978;SDS011;65911;47.502;19.148;2023-04-29T06:23:28;5.33;;;3.83;;
76978;SDS011;65911;47.502;19.148;2023-04-29T06:26:30;6.65;;;3.92;;
76978;SDS011;65911;47.502;19.148;2023-04-29T06:29:33;8.98;;;3.63;;
76978;SDS011;65911;47.502;19.148;2023-04-29T06:32:39;5.87;;;3.60;;
76978;SDS011;65911;47.502;19.148;2023-04-29T06:35:42;5.43;;;3.08;;
76978;SDS011;65911;47.502;19.148;2023-04-29T06:38:57;5.85;;;4.03;;
76978;SDS011;65911;47.502;19.148;2023-04-29T06:42:26;6.80;;;4.00;;
76978;SDS011;65911;47.502;19.148;2023-04-29T06:45:57;7.65;;;4.07;;
76978;SDS011;65911;47.502;19.148;2023-04-29T06:49:09;6.28;;;3.85;;
76978;SDS011;65911;47.502;19.148;2023-04-29T06:52:11;6.97;;;4.55;;
76978;SDS011;65911;47.502;19.148;2023-04-29T06:55:13;5.33;;;3.83;;
76978;SDS011;65911;47.502;19.148;2023-04-29T06:58:17;7.28;;;3.28;;
76978;SDS011;65911;47.502;19.148;2023-04-29T07:01:20;7.80;;;3.60;;
76978;SDS011;65911;47.502;19.148;2023-04-29T07:04:24;6.30;;;3.73;;
76978;SDS011;65911;47.502;19.148;2023-04-29T07:07:27;5.72;;;3.33;;
76978;SDS011;65911;47.502;19.148;2023-04-29T07:10:31;5.53;;;3.55;;
76978;SDS011;65911;47.502;19.148;2023-04-29T07:13:33;5.85;;;3.38;;
76978;SDS011;65911;47.502;19.148;2023-04-29T07:16:35;6.35;;;3.45;;
76978;SDS011;65911;47.502;19.148;2023-04-29T07:19:43;7.15;;;3.70;;
76978;SDS011;65911;47.502;19.148;2023-04-29T07:22:46;4.70;;;3.72;;
76978;SDS011;65911;47.502;19.148;2023-04-29T07:25:48;4.90;;;3.80;;
76978;SDS011;65911;47.502;19.148;2023-04-29T07:28:51;4.88;;;3.70;;
76978;SDS011;65911;47.502;19.148;2023-04-29T07:31:53;5.75;;;3.30;;
76978;SDS011;65911;47.502;19.148;2023-04-29T07:34:56;5.57;;;3.77;;
76978;SDS011;65911;47.502;19.148;2023-04-29T07:37:59;4.93;;;3.20;;
76978;SDS011;65911;47.502;19.148;2023-04-29T07:41:04;6.15;;;3.88;;
76978;SDS011;65911;47.502;19.148;2023-04-29T07:44:06;6.00;;;3.55;;
76978;SDS011;65911;47.502;19.148;2023-04-29T07:47:09;7.32;;;3.70;;
76978;SDS011;65911;47.502;19.148;2023-04-29T07:50:12;4.57;;;3.35;;
76978;SDS011;65911;47.502;19.148;2023-04-29T07:53:14;4.70;;;3.35;;
76978;SDS011;65911;47.502;19.148;2023-04-29T07:56:16;4.47;;;3.57;;
76978;SDS011;65911;47.502;19.148;2023-04-29T07:59:20;5.88;;;3.40;;
76978;SDS011;65911;47.502;19.148;2023-04-29T08:02:22;7.80;;;3.58;;
76978;SDS011;65911;47.502;19.148;2023-04-29T08:05:25;4.97;;;3.17;;
76978;SDS011;65911;47.502;19.148;2023-04-29T08:08:29;5.18;;;3.13;;
76978;SDS011;65911;47.502;19.148;2023-04-29T08:11:32;5.13;;;3.03;;
76978;SDS011;65911;47.502;19.148;2023-04-29T08:14:34;5.82;;;3.30;;
76978;SDS011;65911;47.502;19.148;2023-04-29T08:17:37;5.15;;;3.63;;
76978;SDS011;65911;47.502;19.148;2023-04-29T08:20:39;5.53;;;3.25;;
76978;SDS011;65911;47.502;19.148;2023-04-29T08:23:42;7.15;;;3.10;;
76978;SDS011;65911;47.502;19.148;2023-04-29T08:26:45;5.43;;;3.27;;
76978;SDS011;65911;47.502;19.148;2023-04-29T08:29:48;5.65;;;3.13;;
76978;SDS011;65911;47.502;19.148;2023-04-29T08:32:50;5.68;;;2.60;;
76978;SDS011;65911;47.502;19.148;2023-04-29T08:35:59;6.00;;;3.17;;
76978;SDS011;65911;47.502;19.148;2023-04-29T08:39:02;5.22;;;2.67;;
76978;SDS011;65911;47.502;19.148;2023-04-29T08:42:08;5.25;;;2.90;;
76978;SDS011;65911;47.502;19.148;2023-04-29T08:45:11;6.32;;;2.80;;
76978;SDS011;65911;47.502;19.148;2023-04-29T08:48:17;7.05;;;3.08;;
76978;SDS011;65911;47.502;19.148;2023-04-29T08:51:20;4.30;;;2.80;;
76978;SDS011;65911;47.502;19.148;2023-04-29T08:54:22;4.30;;;2.97;;
76978;SDS011;65911;47.502;19.148;2023-04-29T08:57:24;4.40;;;2.93;;
76978;SDS011;65911;47.502;19.148;2023-04-29T09:00:29;4.45;;;2.63;;
76978;SDS011;65911;47.502;19.148;2023-04-29T09:03:39;5.70;;;3.20;;
76978;SDS011;65911;47.502;19.148;2023-04-29T09:06:46;6.03;;;2.60;;
76978;SDS011;65911;47.502;19.148;2023-04-29T09:09:49;4.55;;;2.85;;
76978;SDS011;65911;47.502;19.148;2023-04-29T09:12:55;5.05;;;2.80;;
76978;SDS011;65911;47.502;19.148;2023-04-29T09:15:58;6.30;;;2.80;;
76978;SDS011;65911;47.502;19.148;2023-04-29T09:19:01;3.83;;;2.58;;
76978;SDS011;65911;47.502;19.148;2023-04-29T09:22:03;5.07;;;2.50;;
76978;SDS011;65911;47.502;19.148;2023-04-29T09:25:11;3.72;;;2.53;;
76978;SDS011;65911;47.502;19.148;2023-04-29T09:28:14;4.20;;;2.70;;
76978;SDS011;65911;47.502;19.148;2023-04-29T09:31:26;6.18;;;3.28;;
76978;SDS011;65911;47.502;19.148;2023-04-29T09:34:34;5.40;;;3.38;;
76978;SDS011;65911;47.502;19.148;2023-04-29T09:37:38;5.50;;;2.53;;
76978;SDS011;65911;47.502;19.148;2023-04-29T09:40:42;3.72;;;2.30;;
76978;SDS011;65911;47.502;19.148;2023-04-29T09:44:03;4.53;;;2.85;;
76978;SDS011;65911;47.502;19.148;2023-04-29T09:47:09;4.47;;;2.58;;
76978;SDS011;65911;47.502;19.148;2023-04-29T09:50:11;5.20;;;2.45;;
76978;SDS011;65911;47.502;19.148;2023-04-29T09:53:27;5.65;;;2.83;;
76978;SDS011;65911;47.502;19.148;2023-04-29T09:56:43;3.97;;;2.03;;
76978;SDS011;65911;47.502;19.148;2023-04-29T09:59:49;4.53;;;2.47;;
76978;SDS011;65911;47.502;19.148;2023-04-29T10:02:52;6.35;;;2.30;;
76978;SDS011;65911;47.502;19.148;2023-04-29T10:05:55;5.93;;;2.30;;
76978;SDS011;65911;47.502;19.148;2023-04-29T10:08:58;5.33;;;2.40;;
76978;SDS011;65911;47.502;19.148;2023-04-29T10:12:00;5.00;;;2.30;;
76978;SDS011;65911;47.502;19.148;2023-04-29T10:18:29;3.85;;;2.60;;
76978;SDS011;65911;47.502;19.148;2023-04-29T10:21:37;4.65;;;2.47;;
76978;SDS011;65911;47.502;19.148;2023-04-29T10:24:39;5.28;;;2.40;;
76978;SDS011;65911;47.502;19.148;2023-04-29T10:27:44;4.25;;;2.08;;
76978;SDS011;65911;47.502;19.148;2023-04-29T10:30:51;4.10;;;2.07;;
76978;SDS011;65911;47.502;19.148;2023-04-29T10:33:54;3.80;;;2.53;;
76978;SDS011;65911;47.502;19.148;2023-04-29T10:36:57;3.40;;;2.10;;
76978;SDS011;65911;47.502;19.148;2023-04-29T10:40:04;2.97;;;2.00;;
76978;SDS011;65911;47.502;19.148;2023-04-29T10:43:12;3.47;;;2.15;;
76978;SDS011;65911;47.502;19.148;2023-04-29T10:46:26;3.65;;;1.90;;
76978;SDS011;65911;47.502;19.148;2023-04-29T10:49:35;4.38;;;2.00;;
76978;SDS011;65911;47.502;19.148;2023-04-29T10:52:50;4.25;;;2.08;;
76978;SDS011;65911;47.502;19.148;2023-04-29T10:55:53;2.83;;;2.13;;
76978;SDS011;65911;47.502;19.148;2023-04-29T10:58:58;4.30;;;2.20;;
76978;SDS011;65911;47.502;19.148;2023-04-29T11:02:00;3.87;;;2.23;;
76978;SDS011;65911;47.502;19.148;2023-04-29T11:05:06;6.68;;;2.10;;
76978;SDS011;65911;47.502;19.148;2023-04-29T11:08:10;2.92;;;2.35;;
76978;SDS011;65911;47.502;19.148;2023-04-29T11:11:13;3.67;;;2.33;;
76978;SDS011;65911;47.502;19.148;2023-04-29T11:14:20;3.83;;;2.10;;
76978;SDS011;65911;47.502;19.148;2023-04-29T11:17:23;5.53;;;2.17;;
76978;SDS011;65911;47.502;19.148;2023-04-29T11:20:28;4.28;;;2.28;;
76978;SDS011;65911;47.502;19.148;2023-04-29T11:23:37;5.30;;;2.65;;
76978;SDS011;65911;47.502;19.148;2023-04-29T11:26:41;4.30;;;2.13;;
76978;SDS011;65911;47.502;19.148;2023-04-29T11:29:45;4.60;;;2.50;;
76978;SDS011;65911;47.502;19.148;2023-04-29T11:32:51;3.73;;;2.30;;
76978;SDS011;65911;47.502;19.148;2023-04-29T11:35:53;4.40;;;2.53;;
76978;SDS011;65911;47.502;19.148;2023-04-29T11:38:56;5.03;;;2.28;;
76978;SDS011;65911;47.502;19.148;2023-04-29T11:42:02;4.53;;;2.70;;
76978;SDS011;65911;47.502;19.148;2023-04-29T11:45:05;3.28;;;2.13;;
76978;SDS011;65911;47.502;19.148;2023-04-29T11:48:08;4.43;;;2.55;;
76978;SDS011;65911;47.502;19.148;2023-04-29T11:51:11;5.75;;;2.08;;
76978;SDS011;65911;47.502;19.148;2023-04-29T11:54:14;3.15;;;2.10;;
76978;SDS011;65911;47.502;19.148;2023-04-29T11:57:17;3.17;;;2.40;;
76978;SDS011;65911;47.502;19.148;2023-04-29T12:00:19;3.15;;;2.22;;
76978;SDS011;65911;47.502;19.148;2023-04-29T12:03:21;4.13;;;2.33;;
76978;SDS011;65911;47.502;19.148;2023-04-29T12:06:28;4.78;;;2.20;;
76978;SDS011;65911;47.502;19.148;2023-04-29T12:09:40;4.13;;;2.53;;
76978;SDS011;65911;47.502;19.148;2023-04-29T12:12:43;4.93;;;2.17;;
76978;SDS011;65911;47.502;19.148;2023-04-29T12:15:47;3.53;;;2.17;;
76978;SDS011;65911;47.502;19.148;2023-04-29T12:18:51;4.80;;;2.10;;
76978;SDS011;65911;47.502;19.148;2023-04-29T12:22:01;4.13;;;2.28;;
76978;SDS011;65911;47.502;19.148;2023-04-29T12:25:05;3.20;;;2.15;;
76978;SDS011;65911;47.502;19.148;2023-04-29T12:28:11;3.45;;;2.40;;
76978;SDS011;65911;47.502;19.148;2023-04-29T12:31:14;3.97;;;2.15;;
76978;SDS011;65911;47.502;19.148;2023-04-29T12:34:27;3.93;;;1.97;;
76978;SDS011;65911;47.502;19.148;2023-04-29T12:37:39;3.97;;;2.17;;
76978;SDS011;65911;47.502;19.148;2023-04-29T12:40:42;3.63;;;2.05;;
76978;SDS011;65911;47.502;19.148;2023-04-29T12:43:45;3.78;;;2.15;;
76978;SDS011;65911;47.502;19.148;2023-04-29T12:46:47;4.67;;;2.20;;
76978;SDS011;65911;47.502;19.148;2023-04-29T12:49:49;4.53;;;1.98;;
76978;SDS011;65911;47.502;19.148;2023-04-29T12:52:51;3.83;;;2.38;;
76978;SDS011;65911;47.502;19.148;2023-04-29T12:55:54;3.78;;;2.20;;
76978;SDS011;65911;47.502;19.148;2023-04-29T12:58:56;2.85;;;2.30;;
76978;SDS011;65911;47.502;19.148;2023-04-29T13:01:59;4.30;;;2.20;;
76978;SDS011;65911;47.502;19.148;2023-04-29T13:05:02;3.17;;;2.45;;
76978;SDS011;65911;47.502;19.148;2023-04-29T13:08:05;3.27;;;2.00;;
76978;SDS011;65911;47.502;19.148;2023-04-29T13:11:08;3.33;;;2.25;;
76978;SDS011;65911;47.502;19.148;2023-04-29T13:14:10;3.45;;;2.33;;
76978;SDS011;65911;47.502;19.148;2023-04-29T13:17:12;2.10;;;1.90;;
76978;SDS011;65911;47.502;19.148;2023-04-29T13:20:14;3.15;;;1.98;;
76978;SDS011;65911;47.502;19.148;2023-04-29T13:23:17;3.53;;;2.13;;
76978;SDS011;65911;47.502;19.148;2023-04-29T13:26:19;4.85;;;2.13;;
76978;SDS011;65911;47.502;19.148;2023-04-29T13:29:21;4.38;;;2.47;;
76978;SDS011;65911;47.502;19.148;2023-04-29T13:32:24;4.43;;;2.42;;
76978;SDS011;65911;47.502;19.148;2023-04-29T13:35:27;3.28;;;2.15;;
76978;SDS011;65911;47.502;19.148;2023-04-29T13:38:29;2.50;;;1.80;;
76978;SDS011;65911;47.502;19.148;2023-04-29T13:41:32;3.22;;;2.05;;
76978;SDS011;65911;47.502;19.148;2023-04-29T13:44:36;6.63;;;2.10;;
76978;SDS011;65911;47.502;19.148;2023-04-29T13:47:58;2.70;;;2.20;;
76978;SDS011;65911;47.502;19.148;2023-04-29T13:51:17;3.40;;;1.95;;
76978;SDS011;65911;47.502;19.148;2023-04-29T13:54:22;3.28;;;2.00;;
76978;SDS011;65911;47.502;19.148;2023-04-29T13:57:27;5.05;;;2.20;;
76978;SDS011;65911;47.502;19.148;2023-04-29T14:00:49;3.50;;;2.53;;
76978;SDS011;65911;47.502;19.148;2023-04-29T14:03:54;2.65;;;1.90;;
76978;SDS011;65911;47.502;19.148;2023-04-29T14:06:56;5.03;;;2.33;;
76978;SDS011;65911;47.502;19.148;2023-04-29T14:09:59;3.83;;;1.77;;
76978;SDS011;65911;47.502;19.148;2023-04-29T14:13:01;4.28;;;1.88;;
76978;SDS011;65911;47.502;19.148;2023-04-29T14:16:04;3.15;;;1.98;;
76978;SDS011;65911;47.502;19.148;2023-04-29T14:19:07;4.37;;;2.60;;
76978;SDS011;65911;47.502;19.148;2023-04-29T14:22:10;4.22;;;2.10;;
76978;SDS011;65911;47.502;19.148;2023-04-29T14:25:12;3.90;;;2.10;;
76978;SDS011;65911;47.502;19.148;2023-04-29T14:28:14;6.05;;;2.30;;
76978;SDS011;65911;47.502;19.148;2023-04-29T14:31:16;3.58;;;2.08;;
76978;SDS011;65911;47.502;19.148;2023-04-29T14:34:19;2.45;;;1.70;;
76978;SDS011;65911;47.502;19.148;2023-04-29T14:37:21;2.80;;;2.15;;
76978;SDS011;65911;47.502;19.148;2023-04-29T14:40:23;2.20;;;1.50;;
76978;SDS011;65911;47.502;19.148;2023-04-29T14:43:26;3.80;;;1.98;;
76978;SDS011;65911;47.502;19.148;2023-04-29T14:46:33;3.72;;;2.25;;
76978;SDS011;65911;47.502;19.148;2023-04-29T14:49:35;2.87;;;2.03;;
76978;SDS011;65911;47.502;19.148;2023-04-29T14:52:37;3.38;;;2.15;;
76978;SDS011;65911;47.502;19.148;2023-04-29T14:55:40;3.40;;;2.25;;
76978;SDS011;65911;47.502;19.148;2023-04-29T14:58:42;4.20;;;2.40;;
76978;SDS011;65911;47.502;19.148;2023-04-29T15:01:44;2.95;;;2.13;;
76978;SDS011;65911;47.502;19.148;2023-04-29T15:04:47;4.55;;;2.10;;
76978;SDS011;65911;47.502;19.148;2023-04-29T15:07:49;2.95;;;2.25;;
76978;SDS011;65911;47.502;19.148;2023-04-29T15:10:52;3.27;;;1.90;;
76978;SDS011;65911;47.502;19.148;2023-04-29T15:13:54;2.90;;;2.22;;
76978;SDS011;65911;47.502;19.148;2023-04-29T15:16:57;3.42;;;2.13;;
76978;SDS011;65911;47.502;19.148;2023-04-29T15:19:59;4.23;;;2.30;;
76978;SDS011;65911;47.502;19.148;2023-04-29T15:23:02;4.40;;;2.10;;
76978;SDS011;65911;47.502;19.148;2023-04-29T15:26:04;2.47;;;1.95;;
76978;SDS011;65911;47.502;19.148;2023-04-29T15:29:07;4.07;;;2.20;;
76978;SDS011;65911;47.502;19.148;2023-04-29T15:32:10;3.03;;;2.13;;
76978;SDS011;65911;47.502;19.148;2023-04-29T15:35:12;3.67;;;2.20;;
76978;SDS011;65911;47.502;19.148;2023-04-29T15:38:14;3.92;;;2.10;;
76978;SDS011;65911;47.502;19.148;2023-04-29T15:41:16;2.50;;;1.93;;
76978;SDS011;65911;47.502;19.148;2023-04-29T15:44:18;5.03;;;2.42;;
76978;SDS011;65911;47.502;19.148;2023-04-29T15:47:21;3.40;;;2.30;;
76978;SDS011;65911;47.502;19.148;2023-04-29T15:50:23;3.23;;;2.30;;
76978;SDS011;65911;47.502;19.148;2023-04-29T15:53:25;3.63;;;2.30;;
76978;SDS011;65911;47.502;19.148;2023-04-29T15:56:27;2.65;;;2.22;;
76978;SDS011;65911;47.502;19.148;2023-04-29T15:59:31;5.05;;;2.00;;
76978;SDS011;65911;47.502;19.148;2023-04-29T16:02:33;3.53;;;2.17;;
76978;SDS011;65911;47.502;19.148;2023-04-29T16:05:35;4.93;;;2.28;;
76978;SDS011;65911;47.502;19.148;2023-04-29T16:08:38;5.28;;;2.67;;
76978;SDS011;65911;47.502;19.148;2023-04-29T16:11:42;4.40;;;2.40;;
76978;SDS011;65911;47.502;19.148;2023-04-29T16:14:45;4.13;;;2.50;;
76978;SDS011;65911;47.502;19.148;2023-04-29T16:17:47;5.43;;;2.33;;
76978;SDS011;65911;47.502;19.148;2023-04-29T16:20:49;4.70;;;2.20;;
76978;SDS011;65911;47.502;19.148;2023-04-29T16:23:52;5.43;;;1.90;;
76978;SDS011;65911;47.502;19.148;2023-04-29T16:26:55;4.97;;;2.10;;
76978;SDS011;65911;47.502;19.148;2023-04-29T16:29:57;5.43;;;2.15;;
76978;SDS011;65911;47.502;19.148;2023-04-29T16:33:00;3.08;;;2.15;;
76978;SDS011;65911;47.502;19.148;2023-04-29T16:36:02;3.03;;;2.13;;
76978;SDS011;65911;47.502;19.148;2023-04-29T16:39:06;3.15;;;2.33;;
76978;SDS011;65911;47.502;19.148;2023-04-29T16:42:09;2.53;;;2.07;;
76978;SDS011;65911;47.502;19.148;2023-04-29T16:45:12;3.83;;;2.40;;
76978;SDS011;65911;47.502;19.148;2023-04-29T16:48:15;3.45;;;1.90;;
76978;SDS011;65911;47.502;19.148;2023-04-29T16:51:17;4.93;;;2.40;;
76978;SDS011;65911;47.502;19.148;2023-04-29T16:54:22;3.58;;;2.10;;
76978;SDS011;65911;47.502;19.148;2023-04-29T16:57:28;2.78;;;1.85;;
76978;SDS011;65911;47.502;19.148;2023-04-29T17:00:31;3.38;;;2.25;;
76978;SDS011;65911;47.502;19.148;2023-04-29T17:03:33;3.42;;;1.90;;
76978;SDS011;65911;47.502;19.148;2023-04-29T17:06:35;3.65;;;2.28;;
76978;SDS011;65911;47.502;19.148;2023-04-29T17:09:38;4.75;;;2.65;;
76978;SDS011;65911;47.502;19.148;2023-04-29T17:12:41;3.00;;;2.37;;
76978;SDS011;65911;47.502;19.148;2023-04-29T17:15:43;5.18;;;2.78;;
76978;SDS011;65911;47.502;19.148;2023-04-29T17:18:45;2.90;;;2.60;;
76978;SDS011;65911;47.502;19.148;2023-04-29T17:21:48;4.57;;;2.70;;
76978;SDS011;65911;47.502;19.148;2023-04-29T17:24:50;3.75;;;2.45;;
76978;SDS011;65911;47.502;19.148;2023-04-29T17:27:53;5.13;;;3.78;;
76978;SDS011;65911;47.502;19.148;2023-04-29T17:30:55;4.60;;;2.60;;
76978;SDS011;65911;47.502;19.148;2023-04-29T17:34:00;5.03;;;2.40;;
76978;SDS011;65911;47.502;19.148;2023-04-29T17:37:09;5.03;;;2.65;;
76978;SDS011;65911;47.502;19.148;2023-04-29T17:40:11;5.72;;;2.78;;
76978;SDS011;65911;47.502;19.148;2023-04-29T17:43:13;5.33;;;3.03;;
76978;SDS011;65911;47.502;19.148;2023-04-29T17:46:15;4.82;;;2.90;;
76978;SDS011;65911;47.502;19.148;2023-04-29T17:49:18;5.55;;;3.20;;
76978;SDS011;65911;47.502;19.148;2023-04-29T17:52:20;5.37;;;3.10;;
76978;SDS011;65911;47.502;19.148;2023-04-29T17:55:23;6.13;;;3.00;;
76978;SDS011;65911;47.502;19.148;2023-04-29T17:58:25;5.88;;;3.70;;
76978;SDS011;65911;47.502;19.148;2023-04-29T18:01:30;8.85;;;3.95;;
76978;SDS011;65911;47.502;19.148;2023-04-29T18:04:33;5.82;;;3.92;;
76978;SDS011;65911;47.502;19.148;2023-04-29T18:07:35;7.00;;;4.10;;
76978;SDS011;65911;47.502;19.148;2023-04-29T18:10:39;6.63;;;4.25;;
76978;SDS011;65911;47.502;19.148;2023-04-29T18:13:42;6.10;;;4.23;;
76978;SDS011;65911;47.502;19.148;2023-04-29T18:16:44;7.63;;;4.03;;
76978;SDS011;65911;47.502;19.148;2023-04-29T18:19:47;4.97;;;3.55;;
76978;SDS011;65911;47.502;19.148;2023-04-29T18:22:53;7.03;;;3.60;;